Bretton Woods, NH (03575)

5:25 PM EST on February 01, 2015 (GMT -0500)
Spruce Road | Change Station
CLOSE
Current Station
Personal Weather Station
Location: Bethlehem, NH
Elevation: 1493 ft
Nearby Weather Stations
Active Advisory: Winter Storm Warning

Elev 1493 ft 44.28 °N, 71.65 °W | Updated 5 minutes ago

Clear
Clear
1.9 °F
Feels Like 2 °F
N
0.0
Wind Variable Wind from NW

Today
High -- | Low -- °F
--% Chance of Precip.
Yesterday
High -- | Low -- °F
Precip. -- in
7:04 AM 4:55 PM
Waxing Gibbous, 96% visible
Pressure 30.22 in
Visibility 10.0 miles
Clouds Clear
Windchill 2 °F
Dew Point -7 °F
Humidity 65%
Rainfall 0.00 in
Snow Depth Not available.
UV 0 out of 12
Pollen .10 out of 12
Air Quality Not available.
Flu Activity Not available.
METAR KHIE 012152Z AUTO 31005KT 10SM CLR M15/M23 A3012 RMK AO2 SLP233 T11501233

More Conditions Fewer Conditions

Pressure 30.22 in
Visibility 10.0 miles
Clouds Clear
Windchill 2 °F
Dew Point -7 °F
Humidity 65%
Rainfall 0.00 in
Snow Depth Not available.
UV 0 out of 12
Pollen .10 out of 12
Air Quality Not available.
Flu Activity Not available.
METAR KHIE 012152Z AUTO 31005KT 10SM CLR M15/M23 A3012 RMK AO2 SLP233 T11501233

More Conditions Fewer Conditions

10-Day Weather Forecast

Almanac

Astronomy

Feb. 01, 2015 Rise Set
Actual Time
Civil Twilight
Nautical Twilight
Astronomical Twilight
Moon
Length of Visible Light
Length of Day
Tomorrow will be .
, % of the Moon is Illuminated

Today's Extremes

State Highs State Lows

Community

WunderPhotos

Upload Photos

1,792,568 photos uploaded!

WunderBlogs® & News

Nearby

Air Quality

  Air Quality AQ Index Pollutant
Not available.

Snow Depth

Station Depth Elevation

Earthquake Activity

City Distance Mag. Time & Date
Minimum magnitude displayed is 2.5.

Coastal Water Temperatures

Place Temperature

Nearby Weather Stations